Time;durP1;ratioP1;P1;durP2;ratioP2;P2;SDS_P1;SDS_P2;PMS_P1;PMS_P2;Temp;Humidity;BMP_temperature;BMP_pressure;BME280_temperature;BME280_humidity;BME280_pressure;Samples;Min_cycle;Max_cycle;Signal;HPM_P1;HPM_P2
2022/06/19 00:00:24;;;;;;;10.18;1.77;;;13.70;99.90;;;;;;5081515;28;20052;-76
2022/06/19 00:02:50;;;;;;;6.43;1.58;;;13.60;99.90;;;;;;5101162;28;20509;-76
2022/06/19 00:05:15;;;;;;;10.25;2.15;;;13.60;99.90;;;;;;5102937;28;20040;-75
2022/06/19 00:07:42;;;;;;;10.57;2.47;;;13.60;99.90;;;;;;5101695;28;20067;-75
2022/06/19 00:10:10;;;;;;;8.00;1.35;;;13.60;99.90;;;;;;5103683;28;20047;-75
2022/06/19 00:12:36;;;;;;;5.43;1.88;;;13.70;99.90;;;;;;5102564;28;20470;-75
2022/06/19 00:15:02;;;;;;;8.60;1.50;;;13.80;99.90;;;;;;5101796;28;20040;-75
2022/06/19 00:17:28;;;;;;;8.05;1.58;;;13.80;99.90;;;;;;5103341;28;20391;-76
2022/06/19 00:19:54;;;;;;;12.50;2.25;;;13.70;99.90;;;;;;5102689;28;20044;-76
2022/06/19 00:22:19;;;;;;;6.32;1.33;;;13.70;99.90;;;;;;5099857;28;20116;-75
2022/06/19 00:24:45;;;;;;;5.38;1.58;;;13.70;99.90;;;;;;5103220;28;20543;-76
2022/06/19 00:27:11;;;;;;;11.43;1.67;;;13.80;99.90;;;;;;5084889;28;20071;-75
2022/06/19 00:29:36;;;;;;;9.98;2.55;;;13.80;99.90;;;;;;5102334;28;20466;-75
2022/06/19 00:32:07;;;;;;;12.48;3.97;;;13.80;99.90;;;;;;5103140;28;20386;-74
2022/06/19 00:34:35;;;;;;;9.07;1.83;;;13.80;99.90;;;;;;5101208;28;20066;-77
2022/06/19 00:37:02;;;;;;;9.48;1.92;;;13.80;99.90;;;;;;5100754;28;20035;-76
2022/06/19 00:39:29;;;;;;;9.43;1.83;;;13.80;99.90;;;;;;5084434;28;20156;-76
2022/06/19 00:41:55;;;;;;;12.65;2.55;;;13.90;99.90;;;;;;5103121;28;20047;-76
2022/06/19 00:44:21;;;;;;;6.90;1.95;;;13.90;99.90;;;;;;5099755;28;20046;-76
2022/06/19 00:46:55;;;;;;;8.63;1.80;;;13.90;99.90;;;;;;5102746;28;20110;-76
2022/06/19 00:49:32;;;;;;;6.30;1.80;;;13.90;99.90;;;;;;5099466;28;20058;-75
2022/06/19 00:52:12;;;;;;;8.05;1.60;;;13.90;99.90;;;;;;5100449;28;20047;-76
2022/06/19 00:55:02;;;;;;;11.75;2.80;;;13.90;99.90;;;;;;5084292;28;20079;-77
2022/06/19 00:57:32;;;;;;;14.18;2.13;;;14.00;99.90;;;;;;5084582;28;20074;-76
2022/06/19 01:00:10;;;;;;;13.38;3.17;;;14.00;99.90;;;;;;5101079;28;20036;-76
2022/06/19 01:02:41;;;;;;;18.77;2.95;;;14.00;99.90;;;;;;5102856;28;20043;-75
2022/06/19 01:05:11;;;;;;;15.30;2.28;;;14.10;99.90;;;;;;5098659;28;20162;-75
2022/06/19 01:07:40;;;;;;;7.63;2.55;;;14.10;99.90;;;;;;5101126;28;20047;-76
2022/06/19 01:10:07;;;;;;;9.63;2.78;;;14.10;99.90;;;;;;5082762;28;20043;-75
2022/06/19 01:12:33;;;;;;;13.52;3.05;;;14.10;99.90;;;;;;5101696;28;20583;-75
2022/06/19 01:15:04;;;;;;;12.43;3.67;;;14.10;99.90;;;;;;5101795;28;20058;-77
2022/06/19 01:17:32;;;;;;;10.95;2.13;;;14.20;99.90;;;;;;5099871;28;20051;-76
2022/06/19 01:20:01;;;;;;;18.98;2.70;;;14.20;99.90;;;;;;5101800;28;20089;-75
2022/06/19 01:22:39;;;;;;;12.57;2.03;;;14.20;99.90;;;;;;5101537;28;20066;-75
2022/06/19 01:25:16;;;;;;;14.63;3.95;;;14.20;99.90;;;;;;5105339;28;20039;-75
2022/06/19 01:30:37;;;;;;;13.25;3.58;;;14.20;99.90;;;;;;5102599;28;20047;-77
2022/06/19 01:33:07;;;;;;;16.98;3.72;;;14.20;99.90;;;;;;5085120;28;20050;-74
2022/06/19 01:35:36;;;;;;;10.85;3.80;;;14.20;99.90;;;;;;5105757;28;20043;-77
2022/06/19 01:38:08;;;;;;;18.17;3.72;;;14.10;99.90;;;;;;5106692;28;20051;-77
2022/06/19 01:40:35;;;;;;;11.07;3.15;;;14.20;99.90;;;;;;5087231;28;20047;-76
2022/06/19 01:43:03;;;;;;;15.13;2.30;;;14.20;99.90;;;;;;5078747;28;20506;-74
2022/06/19 01:45:29;;;;;;;17.40;2.92;;;14.10;99.90;;;;;;5071317;28;20051;-76
2022/06/19 01:47:55;;;;;;;11.23;3.10;;;14.20;99.90;;;;;;5082282;28;20511;-77
2022/06/19 01:50:27;;;;;;;19.58;4.97;;;14.20;99.90;;;;;;5105556;28;20120;-77
2022/06/19 01:52:58;;;;;;;10.65;2.38;;;14.20;99.90;;;;;;5106033;28;20112;-75
2022/06/19 01:55:28;;;;;;;19.00;3.40;;;14.10;99.90;;;;;;5104507;28;20052;-76
2022/06/19 01:57:56;;;;;;;11.05;2.17;;;14.10;99.90;;;;;;5104487;28;20032;-77
2022/06/19 02:00:25;;;;;;;19.02;4.18;;;14.10;99.90;;;;;;5104223;28;20055;-76
2022/06/19 02:02:59;;;;;;;16.20;3.30;;;14.10;99.90;;;;;;5103041;28;20039;-77
2022/06/19 02:05:25;;;;;;;16.45;3.65;;;14.00;99.90;;;;;;5105879;28;20414;-77
2022/06/19 02:07:51;;;;;;;18.30;2.80;;;14.10;99.90;;;;;;5104509;28;20044;-76
2022/06/19 02:10:17;;;;;;;17.15;4.03;;;14.10;99.90;;;;;;5105185;28;20043;-77
2022/06/19 02:12:43;;;;;;;19.17;4.53;;;14.00;99.90;;;;;;5104664;28;20049;-76
2022/06/19 02:15:11;;;;;;;23.73;2.45;;;14.10;99.90;;;;;;5104395;28;20043;-75
2022/06/19 02:17:44;;;;;;;21.85;3.00;;;14.00;99.90;;;;;;5102829;28;20066;-75
2022/06/19 02:20:11;;;;;;;17.92;3.63;;;14.00;99.90;;;;;;5104297;28;20061;-76
2022/06/19 02:22:37;;;;;;;15.18;2.75;;;14.00;99.90;;;;;;5106160;28;20040;-76
2022/06/19 02:25:03;;;;;;;17.85;3.50;;;14.10;99.90;;;;;;5084362;28;20108;-76
2022/06/19 02:27:32;;;;;;;17.92;3.70;;;14.10;99.90;;;;;;5106007;28;20058;-76
2022/06/19 02:30:01;;;;;;;17.15;2.97;;;14.00;99.90;;;;;;5106291;28;20038;-75
2022/06/19 02:32:34;;;;;;;12.85;3.38;;;14.00;99.90;;;;;;5086090;28;20043;-75
2022/06/19 02:35:00;;;;;;;12.50;3.13;;;14.00;99.90;;;;;;5103953;28;20040;-75
2022/06/19 02:37:30;;;;;;;12.82;3.45;;;14.00;99.90;;;;;;5103475;28;20394;-75
2022/06/19 02:40:14;;;;;;;12.32;2.45;;;14.00;99.90;;;;;;5104019;27;20134;-74
2022/06/19 02:42:44;;;;;;;13.93;2.15;;;14.00;99.90;;;;;;5087031;28;20052;-74
2022/06/19 02:45:20;;;;;;;14.60;2.28;;;13.90;99.90;;;;;;5104560;28;20464;-76
2022/06/19 02:47:47;;;;;;;13.43;2.80;;;14.00;99.90;;;;;;5082429;28;20126;-75
2022/06/19 02:50:17;;;;;;;13.10;3.17;;;14.00;99.90;;;;;;5104368;28;20173;-74
2022/06/19 02:52:42;;;;;;;9.68;1.88;;;13.90;99.90;;;;;;5085254;28;20051;-73
2022/06/19 02:55:09;;;;;;;16.65;2.78;;;14.00;99.90;;;;;;5103142;28;20066;-74
2022/06/19 02:57:36;;;;;;;14.52;2.00;;;13.90;99.90;;;;;;5104598;28;20067;-74
2022/06/19 03:00:05;;;;;;;13.35;2.90;;;13.90;99.90;;;;;;5104049;28;20388;-74
2022/06/19 03:02:31;;;;;;;16.53;3.43;;;13.90;99.90;;;;;;5103322;28;20054;-74
2022/06/19 03:05:03;;;;;;;24.85;3.83;;;13.90;99.90;;;;;;5103860;28;20940;-75
2022/06/19 03:07:29;;;;;;;19.50;3.03;;;13.80;99.90;;;;;;5104549;28;20054;-76
2022/06/19 03:09:55;;;;;;;10.70;1.85;;;13.80;99.90;;;;;;5103231;28;20520;-75
2022/06/19 03:12:21;;;;;;;18.13;3.38;;;13.80;99.90;;;;;;5104740;28;20051;-75
2022/06/19 03:14:47;;;;;;;20.02;3.47;;;13.80;99.90;;;;;;5104212;28;20042;-75
2022/06/19 03:17:15;;;;;;;13.55;3.83;;;13.80;99.90;;;;;;5101237;28;20120;-76
2022/06/19 03:19:41;;;;;;;14.35;2.85;;;13.80;99.90;;;;;;5084959;28;20054;-74
2022/06/19 03:22:07;;;;;;;10.75;2.25;;;13.90;99.90;;;;;;5101008;28;20032;-74
2022/06/19 03:24:33;;;;;;;20.27;3.05;;;13.90;99.90;;;;;;5100370;28;20043;-74
2022/06/19 03:26:59;;;;;;;16.35;3.15;;;13.80;99.90;;;;;;5101770;28;20061;-74
2022/06/19 03:29:24;;;;;;;20.38;3.40;;;13.80;99.90;;;;;;5103932;28;20075;-73
2022/06/19 03:31:50;;;;;;;18.88;3.30;;;13.30;99.90;;;;;;5104540;28;20426;-73
2022/06/19 03:34:16;;;;;;;16.88;4.00;;;12.90;99.90;;;;;;5101462;28;20040;-73
2022/06/19 03:36:41;;;;;;;16.35;2.90;;;12.70;99.90;;;;;;5084895;28;20058;-73
2022/06/19 03:39:07;;;;;;;18.67;2.40;;;12.60;99.90;;;;;;5067576;28;20044;-73
2022/06/19 03:41:33;;;;;;;16.52;3.35;;;12.60;99.90;;;;;;5103128;28;20047;-72
2022/06/19 03:43:58;;;;;;;11.43;2.15;;;12.60;99.90;;;;;;5081792;28;20052;-73
2022/06/19 03:46:24;;;;;;;18.13;4.15;;;12.50;99.90;;;;;;5099506;28;20043;-72
2022/06/19 03:48:51;;;;;;;17.40;2.45;;;12.50;99.90;;;;;;5099554;28;20553;-72
2022/06/19 03:51:22;;;;;;;38.50;4.05;;;12.50;99.90;;;;;;5103697;28;20125;-72
2022/06/19 03:53:52;;;;;;;18.25;3.38;;;12.70;99.90;;;;;;5082723;28;20138;-71
2022/06/19 03:56:22;;;;;;;16.83;3.13;;;12.50;99.90;;;;;;5085999;28;20075;-72
2022/06/19 03:58:47;;;;;;;19.95;3.70;;;12.60;99.90;;;;;;5085102;28;20047;-72
2022/06/19 04:01:25;;;;;;;14.80;2.85;;;12.50;99.90;;;;;;5084007;28;20035;-74
2022/06/19 04:03:53;;;;;;;12.07;2.47;;;12.30;99.90;;;;;;5102709;28;20084;-74
2022/06/19 04:06:21;;;;;;;20.33;4.03;;;12.40;99.90;;;;;;5103684;28;20071;-73
2022/06/19 04:08:47;;;;;;;17.98;2.38;;;12.20;99.90;;;;;;5084282;28;20039;-74
2022/06/19 04:11:14;;;;;;;20.63;3.80;;;12.00;99.90;;;;;;5101701;28;20042;-74
2022/06/19 04:13:40;;;;;;;16.98;3.75;;;12.20;99.90;;;;;;5099771;28;20424;-73
2022/06/19 04:16:08;;;;;;;20.73;4.07;;;11.90;99.90;;;;;;5103208;28;20044;-74
2022/06/19 04:18:34;;;;;;;17.73;3.25;;;12.10;99.90;;;;;;5101370;28;20036;-73
2022/06/19 04:21:01;;;;;;;23.38;3.47;;;11.90;99.90;;;;;;5084047;28;20537;-72
2022/06/19 04:23:27;;;;;;;16.02;3.38;;;12.00;99.90;;;;;;5070002;28;20040;-73
2022/06/19 04:25:54;;;;;;;16.23;3.00;;;11.90;99.90;;;;;;5074780;28;20039;-75
2022/06/19 04:28:24;;;;;;;13.50;2.78;;;11.90;99.90;;;;;;5101835;28;20035;-73
2022/06/19 04:30:50;;;;;;;;;;;12.00;99.90;;;;;;5103584;28;20055;-73
2022/06/19 04:33:18;;;;;;;13.00;3.25;;;12.10;99.90;;;;;;5081075;28;19919;-73
2022/06/19 04:35:45;;;;;;;11.65;3.30;;;12.10;99.90;;;;;;5101352;28;20055;-73
2022/06/19 04:38:12;;;;;;;20.17;3.53;;;12.00;99.90;;;;;;5080795;28;20043;-73
2022/06/19 04:40:38;;;;;;;16.00;4.30;;;12.00;99.90;;;;;;5102614;28;20036;-73
2022/06/19 04:43:04;;;;;;;15.38;3.42;;;12.10;99.90;;;;;;5102647;28;20075;-72
2022/06/19 04:45:32;;;;;;;19.65;3.97;;;11.80;99.90;;;;;;5103015;28;20048;-73
2022/06/19 04:47:58;;;;;;;13.13;2.20;;;11.90;99.90;;;;;;5081467;28;20130;-74
2022/06/19 04:50:24;;;;;;;26.85;3.70;;;12.10;99.90;;;;;;5101328;28;20075;-74
2022/06/19 04:52:50;;;;;;;20.30;3.92;;;12.00;99.90;;;;;;5099805;28;20124;-73
2022/06/19 04:55:16;;;;;;;19.08;3.50;;;12.10;99.90;;;;;;5102351;28;20112;-74
2022/06/19 04:57:43;;;;;;;22.45;4.25;;;12.20;99.90;;;;;;5101656;28;20044;-73
2022/06/19 05:00:11;;;;;;;13.32;2.30;;;11.90;99.90;;;;;;5101792;28;20043;-73
2022/06/19 05:02:38;;;;;;;20.00;3.38;;;12.20;99.90;;;;;;5082962;28;20049;-74
2022/06/19 05:05:06;;;;;;;13.73;2.97;;;12.10;99.90;;;;;;5100770;28;20130;-73
2022/06/19 05:07:32;;;;;;;21.45;4.30;;;12.20;99.90;;;;;;5100746;28;20040;-73
2022/06/19 05:09:58;;;;;;;16.13;3.75;;;12.10;99.90;;;;;;5083082;28;20399;-74
2022/06/19 05:12:24;;;;;;;19.75;3.30;;;11.90;99.90;;;;;;5100904;28;20044;-75
2022/06/19 05:14:49;;;;;;;11.90;3.08;;;11.80;99.90;;;;;;5103025;28;20444;-75
2022/06/19 05:17:15;;;;;;;14.35;2.97;;;11.80;99.90;;;;;;5102933;28;20362;-74
2022/06/19 05:19:41;;;;;;;11.30;2.50;;;11.90;99.90;;;;;;5087227;28;20036;-73
2022/06/19 05:22:07;;;;;;;16.73;3.22;;;11.80;99.90;;;;;;5101257;28;20031;-74
2022/06/19 05:24:33;;;;;;;11.57;2.33;;;11.90;99.90;;;;;;5104134;28;20043;-75
2022/06/19 05:26:59;;;;;;;15.27;2.65;;;12.00;99.90;;;;;;5084463;28;20460;-76
2022/06/19 05:29:25;;;;;;;16.52;2.85;;;12.00;99.90;;;;;;5105887;28;20075;-77
2022/06/19 05:31:51;;;;;;;20.80;3.75;;;11.90;99.90;;;;;;5105731;28;20160;-77
2022/06/19 05:34:16;;;;;;;13.65;3.15;;;11.90;99.90;;;;;;5103171;28;20409;-77
2022/06/19 05:36:42;;;;;;;27.70;3.67;;;12.00;99.90;;;;;;5103590;28;20444;-73
2022/06/19 05:39:11;;;;;;;15.63;2.25;;;11.80;99.90;;;;;;5105201;28;20156;-75
2022/06/19 05:41:40;;;;;;;30.08;3.75;;;11.90;99.90;;;;;;5104106;28;20038;-75
2022/06/19 05:44:06;;;;;;;26.77;3.67;;;12.00;99.90;;;;;;5103915;28;20821;-76
2022/06/19 05:46:31;;;;;;;19.45;4.07;;;11.90;99.90;;;;;;5102407;28;20301;-75
2022/06/19 05:48:57;;;;;;;18.67;2.28;;;11.80;99.90;;;;;;5103182;28;20032;-75
2022/06/19 05:51:24;;;;;;;14.48;2.38;;;12.00;99.90;;;;;;5080564;28;20054;-75
2022/06/19 05:53:53;;;;;;;14.77;3.47;;;11.90;99.90;;;;;;5086735;28;20056;-77
2022/06/19 05:56:19;;;;;;;10.73;2.20;;;12.00;99.90;;;;;;5086258;28;20410;-75
2022/06/19 05:58:44;;;;;;;17.35;2.60;;;12.10;99.90;;;;;;5087602;28;20096;-77
2022/06/19 06:01:12;;;;;;;14.68;2.47;;;12.10;99.90;;;;;;5103393;28;20036;-79
2022/06/19 06:03:38;;;;;;;15.98;2.92;;;12.10;99.90;;;;;;5101643;28;20163;-76
2022/06/19 06:06:07;;;;;;;14.07;2.03;;;11.90;99.90;;;;;;5103163;28;20073;-75
2022/06/19 06:08:37;;;;;;;12.05;2.08;;;12.10;99.90;;;;;;5105454;28;20039;-78
2022/06/19 06:11:02;;;;;;;24.70;4.47;;;12.20;99.90;;;;;;5089632;28;20035;-79
2022/06/19 06:13:29;;;;;;;12.77;2.38;;;12.20;99.90;;;;;;5090187;28;20479;-79
2022/06/19 06:15:55;;;;;;;13.77;2.95;;;12.00;99.90;;;;;;5090645;28;20085;-78
2022/06/19 06:18:21;;;;;;;10.43;2.22;;;12.10;99.90;;;;;;5101908;28;20046;-78
2022/06/19 06:21:16;;;;;;;9.70;1.58;;;12.10;99.90;;;;;;5106419;28;20440;-76
2022/06/19 06:23:43;;;;;;;16.63;2.75;;;12.10;99.90;;;;;;5109109;28;20046;-77
2022/06/19 06:26:15;;;;;;;11.65;2.92;;;12.00;99.90;;;;;;5105962;27;20322;-79
2022/06/19 06:28:42;;;;;;;10.45;2.28;;;12.00;99.90;;;;;;5108818;28;20090;-78
2022/06/19 06:31:09;;;;;;;9.98;1.92;;;12.10;99.90;;;;;;5109066;28;20142;-78
2022/06/19 06:33:34;;;;;;;10.40;1.85;;;12.30;99.90;;;;;;5105649;28;20119;-80
2022/06/19 06:36:01;;;;;;;24.80;4.30;;;12.30;99.90;;;;;;5108683;28;20119;-79
2022/06/19 06:38:27;;;;;;;6.80;1.80;;;12.20;99.90;;;;;;5108449;28;20130;-78
2022/06/19 06:40:53;;;;;;;12.73;2.88;;;12.30;99.90;;;;;;5105052;28;20082;-78
2022/06/19 06:43:20;;;;;;;16.52;2.35;;;12.30;99.90;;;;;;5107177;28;20079;-85
2022/06/19 06:45:48;;;;;;;10.98;2.38;;;12.40;99.90;;;;;;5109627;28;20088;-85
2022/06/19 06:48:15;;;;;;;14.35;2.08;;;12.50;99.90;;;;;;5108288;28;20039;-83
2022/06/19 06:50:41;;;;;;;16.33;2.80;;;12.30;99.90;;;;;;5108932;28;20051;-81
2022/06/19 06:53:08;;;;;;;14.68;3.38;;;12.40;99.90;;;;;;5108706;28;20048;-87
2022/06/19 06:55:44;;;;;;;18.05;3.17;;;12.40;99.90;;;;;;5096042;28;20052;-82
2022/06/19 06:58:11;;;;;;;10.13;2.55;;;12.60;99.90;;;;;;5087922;28;20101;-81
2022/06/19 07:00:37;;;;;;;22.08;3.40;;;12.60;99.90;;;;;;5094502;28;20111;-84
2022/06/19 07:03:04;;;;;;;7.15;1.48;;;12.50;99.90;;;;;;5101755;28;20075;-77
2022/06/19 07:05:30;;;;;;;11.43;2.60;;;12.50;99.90;;;;;;5101337;28;20043;-79
2022/06/19 07:07:57;;;;;;;12.02;2.70;;;12.60;99.90;;;;;;5108269;28;20075;-78
2022/06/19 07:10:24;;;;;;;13.25;2.70;;;12.60;99.90;;;;;;5107078;28;20069;-78
2022/06/19 07:12:50;;;;;;;10.82;2.47;;;12.50;99.90;;;;;;5108549;28;20051;-81
2022/06/19 07:15:16;;;;;;;12.25;1.77;;;12.50;99.90;;;;;;5107842;28;20451;-78
2022/06/19 07:17:42;;;;;;;15.48;2.55;;;12.70;99.90;;;;;;5104166;28;20039;-78
2022/06/19 07:20:09;;;;;;;8.18;2.20;;;12.80;99.90;;;;;;5106737;28;20054;-83
2022/06/19 07:22:35;;;;;;;9.75;1.85;;;12.80;99.90;;;;;;5104538;27;20751;-77
2022/06/19 07:25:02;;;;;;;23.85;4.95;;;12.80;99.90;;;;;;5106617;28;20040;-78
2022/06/19 07:27:28;;;;;;;12.32;2.40;;;12.70;99.90;;;;;;5105200;28;20039;-80
2022/06/19 07:29:54;;;;;;;17.17;2.67;;;12.70;99.90;;;;;;5106475;28;20439;-79
2022/06/19 07:32:19;;;;;;;13.60;2.15;;;12.90;99.90;;;;;;5085069;28;20054;-79
2022/06/19 07:34:45;;;;;;;18.52;3.45;;;12.80;99.90;;;;;;5105483;28;20521;-86
2022/06/19 07:37:13;;;;;;;11.88;1.85;;;12.80;99.90;;;;;;5104256;28;20483;-79
2022/06/19 07:39:40;;;;;;;15.63;3.08;;;13.00;99.90;;;;;;5098261;28;20075;-89
2022/06/19 07:42:08;;;;;;;16.80;3.75;;;13.00;99.90;;;;;;5086306;28;20111;-85
2022/06/19 07:44:38;;;;;;;21.45;3.67;;;12.90;99.90;;;;;;5104720;28;20172;-86
2022/06/19 07:52:36;;;;;;;7.70;1.80;;;13.00;99.90;;;;;;5081044;28;20059;-82
2022/06/19 07:55:03;;;;;;;10.18;2.95;;;13.00;99.90;;;;;;5107729;28;20044;-84
2022/06/19 07:57:28;;;;;;;15.05;2.58;;;13.20;99.90;;;;;;5089257;28;20052;-82
2022/06/19 07:59:54;;;;;;;11.90;1.92;;;13.10;99.90;;;;;;5107788;28;20048;-84
2022/06/19 08:02:20;;;;;;;11.90;2.50;;;13.10;99.90;;;;;;5105685;27;20060;-85
2022/06/19 08:04:45;;;;;;;14.38;2.05;;;13.20;99.90;;;;;;5092724;28;20104;-86
2022/06/19 08:07:12;;;;;;;13.40;3.17;;;13.20;99.90;;;;;;5107464;28;20047;-82
2022/06/19 08:09:38;;;;;;;8.95;2.35;;;13.10;99.90;;;;;;5110470;28;20888;-85
2022/06/19 08:12:05;;;;;;;12.73;2.17;;;13.00;99.90;;;;;;5108316;28;20039;-84
2022/06/19 08:14:30;;;;;;;12.32;2.45;;;13.10;99.90;;;;;;5089899;28;20067;-84
2022/06/19 08:16:56;;;;;;;13.13;3.05;;;13.10;99.90;;;;;;5088739;28;20525;-85
2022/06/19 08:19:22;;;;;;;12.93;2.08;;;13.20;99.90;;;;;;5107599;28;20063;-83
2022/06/19 08:21:47;;;;;;;19.08;2.95;;;13.20;99.90;;;;;;5108286;28;20549;-85
2022/06/19 08:24:13;;;;;;;11.70;2.50;;;13.30;99.90;;;;;;5107385;28;20039;-81
2022/06/19 08:26:39;;;;;;;9.90;1.95;;;13.50;99.90;;;;;;5106380;28;20387;-79
2022/06/19 08:29:04;;;;;;;8.27;1.60;;;13.60;99.90;;;;;;5106746;28;20498;-80
2022/06/19 08:31:32;;;;;;;4.35;0.95;;;13.50;99.90;;;;;;5098418;28;20490;-80
2022/06/19 08:33:58;;;;;;;9.18;1.33;;;13.40;99.90;;;;;;5106279;28;20043;-76
2022/06/19 08:36:25;;;;;;;11.43;1.38;;;13.50;99.90;;;;;;5106861;28;20046;-78
2022/06/19 08:39:00;;;;;;;12.63;1.65;;;13.60;99.90;;;;;;5103289;28;20052;-78
2022/06/19 08:41:51;;;;;;;10.75;2.03;;;13.50;99.90;;;;;;5105788;28;20043;-77
2022/06/19 08:44:51;;;;;;;8.40;2.95;;;13.50;99.90;;;;;;5103768;28;20178;-78
2022/06/19 08:47:22;;;;;;;8.23;2.10;;;13.60;99.90;;;;;;5077342;28;20405;-79
2022/06/19 08:50:15;;;;;;;16.98;3.53;;;13.70;99.90;;;;;;5076690;28;20036;-77
2022/06/19 08:53:30;;;;;;;12.25;2.25;;;13.50;99.90;;;;;;5085246;28;20639;-78
2022/06/19 08:56:08;;;;;;;8.55;1.58;;;13.60;99.90;;;;;;5020496;28;20091;-77
2022/06/19 08:58:48;;;;;;;15.52;2.78;;;13.70;99.90;;;;;;5102496;27;20128;-77
2022/06/19 09:01:16;;;;;;;11.13;2.40;;;13.70;99.90;;;;;;5102488;28;20043;-78
2022/06/19 09:07:10;;;;;;;10.80;1.75;;;13.80;99.90;;;;;;5105605;28;20074;-78
2022/06/19 09:09:55;;;;;;;12.40;2.47;;;13.90;99.90;;;;;;5105628;28;20047;-77
2022/06/19 09:12:21;;;;;;;12.10;2.22;;;14.10;99.90;;;;;;5093971;28;20818;-78
2022/06/19 09:14:54;;;;;;;5.38;1.05;;;14.00;99.90;;;;;;5096747;28;20071;-78
2022/06/19 09:17:43;;;;;;;5.90;1.20;;;14.00;99.90;;;;;;5097118;28;20562;-78
2022/06/19 09:20:29;;;;;;;6.57;1.60;;;14.10;99.90;;;;;;5076070;28;20036;-77
2022/06/19 09:22:59;;;;;;;7.07;1.85;;;14.10;99.90;;;;;;5098519;28;20096;-78
2022/06/19 09:25:44;;;;;;;11.50;1.77;;;14.10;99.90;;;;;;5094017;28;20666;-77
2022/06/19 09:28:33;;;;;;;6.28;1.05;;;14.10;99.90;;;;;;5098996;28;20081;-76
2022/06/19 09:31:08;;;;;;;6.72;1.27;;;14.10;99.90;;;;;;5095597;28;20032;-77
2022/06/19 09:33:52;;;;;;;7.75;1.05;;;14.20;99.90;;;;;;5095670;28;20085;-74
2022/06/19 09:36:35;;;;;;;5.80;1.10;;;14.20;99.90;;;;;;5099246;28;20429;-76
2022/06/19 09:39:08;;;;;;;6.07;1.20;;;14.20;99.90;;;;;;5076680;28;20048;-79
2022/06/19 09:42:00;;;;;;;6.43;0.70;;;14.30;99.90;;;;;;5093468;28;20390;-79
2022/06/19 09:44:32;;;;;;;6.80;1.67;;;14.40;99.90;;;;;;5089321;28;20047;-85
2022/06/19 09:47:09;;;;;;;5.40;1.13;;;14.40;99.90;;;;;;5099389;28;20075;-79
2022/06/19 09:49:43;;;;;;;5.18;1.08;;;14.20;99.90;;;;;;5107104;28;20107;-80
2022/06/19 09:52:21;;;;;;;6.18;1.05;;;14.20;99.90;;;;;;5089806;28;20059;-81
2022/06/19 09:54:55;;;;;;;6.70;1.10;;;14.30;99.90;;;;;;5109092;28;20054;-81
2022/06/19 09:57:41;;;;;;;8.75;1.95;;;14.40;99.90;;;;;;5089315;28;20131;-81
2022/06/19 10:00:24;;;;;;;8.38;1.77;;;14.40;99.90;;;;;;5091011;28;20101;-82
2022/06/19 10:02:58;;;;;;;6.55;1.35;;;14.70;99.90;;;;;;5102357;28;20086;-86
2022/06/19 10:05:30;;;;;;;3.88;0.82;;;14.80;99.90;;;;;;5105485;28;20088;-84
2022/06/19 10:08:04;;;;;;;3.55;0.43;;;15.00;99.90;;;;;;5102877;28;20701;-81
2022/06/19 10:10:44;;;;;;;5.95;1.00;;;14.90;99.90;;;;;;5107720;28;20538;-82
2022/06/19 10:13:19;;;;;;;8.68;1.27;;;14.90;99.90;;;;;;5107738;28;20039;-81
2022/06/19 10:15:46;;;;;;;5.88;1.52;;;14.80;99.90;;;;;;5087880;28;20044;-81
2022/06/19 10:18:49;;;;;;;4.95;1.52;;;14.80;99.90;;;;;;5104564;28;20089;-83
2022/06/19 10:24:41;;;;;;;3.42;0.90;;;14.70;99.90;;;;;;5108479;28;20040;-82
2022/06/19 10:27:27;;;;;;;7.80;1.98;;;14.90;99.90;;;;;;5106785;28;20071;-83
2022/06/19 10:30:07;;;;;;;4.43;0.95;;;15.30;99.90;;;;;;5107273;28;20093;-88
2022/06/19 10:33:01;;;;;;;3.78;0.60;;;15.70;99.90;;;;;;5101413;28;20040;-86
2022/06/19 10:35:35;;;;;;;4.75;1.63;;;15.80;99.90;;;;;;5109854;28;20079;-87
2022/06/19 10:38:22;;;;;;;2.85;0.73;;;15.80;99.90;;;;;;5107557;28;20048;-84
2022/06/19 10:41:08;;;;;;;3.80;0.95;;;15.80;99.90;;;;;;5110446;28;20040;-86
2022/06/19 10:44:12;;;;;;;1.80;0.45;;;16.00;99.90;;;;;;5108158;28;20047;-80
2022/06/19 10:46:39;;;;;;;2.92;0.43;;;15.80;99.90;;;;;;5063027;28;20051;-77
2022/06/19 10:49:21;;;;;;;2.38;0.47;;;16.00;99.90;;;;;;5106215;28;20107;-78
2022/06/19 10:52:36;;;;;;;2.67;0.50;;;16.10;99.90;;;;;;5079992;28;20062;-75
2022/06/19 10:55:10;;;;;;;1.95;0.60;;;15.90;99.90;;;;;;5085874;28;20047;-77
2022/06/19 10:57:57;;;;;;;4.57;0.85;;;15.80;99.90;;;;;;5108211;28;20057;-78
2022/06/19 11:00:24;;;;;;;4.22;1.15;;;15.80;99.90;;;;;;5086978;28;20465;-77
2022/06/19 11:05:52;;;;;;;3.33;1.23;;;15.60;99.90;;;;;;5089336;28;20407;-80
2022/06/19 11:08:22;;;;;;;4.45;1.13;;;15.60;99.90;;;;;;5083749;28;20572;-77
2022/06/19 11:10:56;;;;;;;5.07;1.20;;;15.60;99.90;;;;;;5106713;28;20379;-80
2022/06/19 11:13:22;;;;;;;5.28;1.05;;;15.60;99.90;;;;;;5092079;28;20397;-81
2022/06/19 11:16:05;;;;;;;4.03;1.42;;;15.40;99.90;;;;;;5072062;28;20051;-82
2022/06/19 11:18:48;;;;;;;6.80;1.10;;;15.50;99.90;;;;;;5105552;28;20046;-80
2022/06/19 11:21:21;;;;;;;2.38;0.63;;;15.30;99.90;;;;;;5106030;28;20131;-85
2022/06/19 11:23:46;;;;;;;6.45;0.90;;;15.00;99.90;;;;;;5104635;28;20110;-86
2022/06/19 11:26:33;;;;;;;3.92;1.40;;;15.00;99.90;;;;;;5109858;28;20127;-88
2022/06/19 11:29:06;;;;;;;1.90;0.57;;;15.10;99.90;;;;;;5074632;28;20039;-87
2022/06/19 11:31:35;;;;;;;6.15;1.13;;;15.10;99.90;;;;;;5084696;28;20108;-88
2022/06/19 11:34:43;;;;;;;6.30;1.08;;;15.10;99.90;;;;;;5107640;28;20040;-88
2022/06/19 11:37:32;;;;;;;7.15;1.73;;;14.90;99.90;;;;;;5107277;28;20044;-88
2022/06/19 11:39:58;;;;;;;2.90;1.08;;;14.90;99.90;;;;;;5088705;28;20060;-89
2022/06/19 11:42:45;;;;;;;7.13;1.35;;;14.90;99.90;;;;;;5107099;28;20672;-87
2022/06/19 11:45:14;;;;;;;5.82;1.17;;;14.90;99.90;;;;;;5108216;28;20140;-90
2022/06/19 11:47:54;;;;;;;6.13;0.65;;;14.90;99.90;;;;;;5106834;28;20476;-80
2022/06/19 11:50:32;;;;;;;;;;;14.90;99.90;;;;;;5088698;28;20047;-80
2022/06/19 11:53:05;;;;;;;4.57;1.60;;;15.00;99.90;;;;;;5101309;28;20003;-80
2022/06/19 11:55:35;;;;;;;6.97;2.38;;;14.90;99.90;;;;;;5103731;28;20043;-79
2022/06/19 11:58:11;;;;;;;8.40;2.05;;;14.70;99.90;;;;;;5085114;28;20055;-80
2022/06/19 12:00:37;;;;;;;6.85;1.88;;;14.60;99.90;;;;;;5087478;28;20662;-80
2022/06/19 12:03:19;;;;;;;5.38;1.20;;;14.90;99.90;;;;;;5103076;28;20113;-82
2022/06/19 12:06:00;;;;;;;4.88;1.02;;;14.90;99.90;;;;;;5104853;28;20122;-81
2022/06/19 12:08:30;;;;;;;2.13;0.73;;;14.90;99.90;;;;;;5100194;28;20394;-77
2022/06/19 12:11:02;;;;;;;6.88;1.88;;;15.10;99.90;;;;;;5079621;28;20048;-81
2022/06/19 12:13:33;;;;;;;7.55;1.67;;;15.20;99.90;;;;;;5081753;28;20040;-80
2022/06/19 12:16:19;;;;;;;4.43;1.83;;;15.60;99.90;;;;;;5068500;28;20043;-79
2022/06/19 12:18:45;;;;;;;8.57;1.20;;;16.00;99.90;;;;;;5084950;28;20229;-77
2022/06/19 12:21:28;;;;;;;7.50;1.50;;;15.90;99.90;;;;;;5103673;28;20130;-77
2022/06/19 12:24:07;;;;;;;3.50;1.10;;;16.00;99.90;;;;;;5083438;28;20456;-78
2022/06/19 12:26:40;;;;;;;3.92;0.80;;;16.50;99.90;;;;;;5070889;28;20047;-75
2022/06/19 12:29:36;;;;;;;3.42;1.23;;;16.50;99.90;;;;;;5106687;28;20039;-77
2022/06/19 12:32:19;;;;;;;4.82;1.23;;;16.20;99.90;;;;;;5082612;28;20055;-77
2022/06/19 12:34:47;;;;;;;2.35;1.10;;;16.40;99.90;;;;;;5104697;28;20040;-79
2022/06/19 12:37:20;;;;;;;4.25;0.77;;;16.50;99.90;;;;;;5105516;28;20124;-80
2022/06/19 12:39:46;;;;;;;3.88;0.80;;;16.40;99.90;;;;;;5104309;28;20039;-79
2022/06/19 12:42:50;;;;;;;4.00;1.17;;;16.60;99.90;;;;;;5103449;28;20093;-81
2022/06/19 12:45:45;;;;;;;4.45;0.82;;;16.60;99.90;;;;;;5089291;28;20048;-81
2022/06/19 12:48:20;;;;;;;5.03;0.90;;;16.70;99.90;;;;;;5105797;28;20410;-81
2022/06/19 12:50:59;;;;;;;6.15;1.38;;;16.90;99.90;;;;;;5104270;28;20126;-78
2022/06/19 12:54:05;;;;;;;6.25;2.35;;;16.60;99.90;;;;;;5106141;28;20097;-76
2022/06/19 12:56:59;;;;;;;2.42;1.35;;;16.70;99.90;;;;;;5087986;28;20056;-78
2022/06/19 12:59:56;;;;;;;4.82;1.00;;;16.90;99.90;;;;;;5105649;28;20044;-82
2022/06/19 13:02:39;;;;;;;2.80;1.00;;;16.60;99.90;;;;;;5104755;28;20040;-79
2022/06/19 13:05:34;;;;;;;5.40;1.83;;;16.70;99.90;;;;;;5104719;28;20043;-79
2022/06/19 13:08:02;;;;;;;10.43;1.65;;;16.70;99.90;;;;;;5106797;28;20035;-81
2022/06/19 13:10:45;;;;;;;7.70;1.85;;;17.20;99.90;;;;;;5084870;28;20048;-81
2022/06/19 13:13:29;;;;;;;22.50;3.83;;;17.30;99.90;;;;;;5086492;28;20512;-80
2022/06/19 13:15:59;;;;;;;4.93;1.45;;;17.10;99.90;;;;;;5087341;28;20044;-79
2022/06/19 13:18:53;;;;;;;8.30;1.15;;;17.50;99.90;;;;;;5106560;28;20044;-81
2022/06/19 13:21:51;;;;;;;5.80;1.90;;;17.10;99.90;;;;;;5093161;28;20040;-75